map of AKT home
AKT - Airport
Location
City:  Akrotiri, Cyprus
Name:RAF Akrotiri
ICAO:LCRA
IATA:AKT

Details
Type:Airport (Aerodrome, Airfield)
Use:Military
Latitude:3435'25"N (34.590416)
Longitude:3259'16"E (32.987861)
Datum:WGS 1984
Elevation:76 ft (23 m)
Variation:5.00E (WMM2015 magnetic declination)
0.09 annual change
Runways:1
Longest:8999 × 200 ft (2743 × 61 m), paved

Time
Time Zone:UTC+2 (DST+3)
Local Time:

Weather
METAR:LCRA 160350Z 33004KT 9999 FEW040 20/14 Q1015 BLU NOSIG
TAF:LCRA 160105Z 1603/1621 VRB05KT 9999 FEW040

Related Locations
Nearby:
Farthest:RVV: 11691 mi / 18816 km
Raivavae, Tubuai Islands, Austral Islands, PF

Find:

   beyond  
but within

Other Information
Maps:
NOTAMs:
Links:
Sources:

  
  • flag of Cyprus
  • flag of Royal Air Force
  

Airport Diagram

Airport diagram for AKT

Larger airport diagram (OBSOLETE) from NGA

Sectional Chart

Flight Planning
at skyvector.com

Satellite Image

Google Maps Satellite view

 

Copyright © 2004-2018 Karl L. Swartz. All rights reserved.
The Great Circle Mapper name and logo are trademarks of the Great Circle Mapper.
All other trademarks mentioned herein belong to their respective owners.
Please see credits for attibutions and further copyright information.

  Follow gcmap on Facebook Follow gcmap on Twitter Follow gcmap on Google+ GCmap on LinkedIn

hCard Microformat

Geo Microformat